Aérodrome :
LOGIN :

S'inscrire | Disclaimer

   EN    FR    IT 

 










Légende :    VFR   VFR Marginal   IFR   IFR Intensif   IFR Très Intensif
Visi : 
Plafond : 
>= 8 km
>= 3000ft
5 à 8 km
1000 à 3000 ft
1500m à 5 km
500 à 1000 ft
800 à 1500m
200 à 500 ft
< 800m
< 200 ft
Symboles :   Orages  Brouillard  Fortes neiges  Fortes précipitations  Vent > 20 kt
SIGMETs :   Divers  Orages  Givrage  Turbulence  Onde Orograph.  Cendres Volcan.






- Altitude de l'aérodrome : 74 ft
- Code IATA : EIN


EHEH - Eindhoven

DERNIER METAR :
  • 250655Z AUTO 25011KT 210V310 9999 NCD 06/03 Q1001 BLU 24010KT 9999 FEW025 SCT050

METARs EXPIRÉS :
  • 250629Z AUTO 25008KT 210V270 9999 FEW023 06/03 Q1001 BLU 24010KT 9999 FEW025 SCT050
  • 250614Z AUTO 25006KT 210V270 9999 BKN023 BKN028 BKN050 06/03 Q1001 WHT 24010KT 9999 SCT040 BKN050
  • 250555Z AUTO 24008KT 210V280 9999 FEW054 SCT063 07/03 Q1001 BLU 24010KT 9999 SCT040 BKN050
  • 250525Z AUTO 24010KT 200V280 9999 BKN043 OVC050 08/03 Q1002 BLU 24010KT 9999 SCT040 BKN050
  • 250455Z AUTO 26010KT 220V290 9999 OVC051 08/03 Q1002 BLU
  • 250425Z AUTO 26013KT 220V300 9999 OVC048 08/04 Q1002 BLU
  • 250409Z AUTO 26016KT 220V310 9999 -DZ FEW017 BKN027 BKN031 09/05 Q1002 BLU

TAF TAF EHEH
Valide du 25 à 06h jusqu'au 26 à 12h UTC


250545Z 2506/2612 25015G25KT 9999 SCT025 BKN040
BECMG 2514/2517 22011KT
TEMPO 2514/2520 23015G25KT 4500 SHRA SCT018CB BKN022
PROB40
TEMPO 2515/2519 3000 TSRAGS SCT007 SCT015CB BKN020
BECMG 2521/2600 SCT012 OVC015
TEMPO 2521/2612 24013G23KT 4000 SHRA TSRAGS BKN008 SCT015CB BKN022
PROB40
TEMPO 2521/2612 1200 SHRASN SCT003 BKN008 SCT012CB
BECMG 2609/2612 27015G25KT



MET'MAP, la Météo Aéronautique d'un coup d'oeil ! - Copyright ORBIFLY Décembre 2007 - Disclaimer

ORBIFLY MET'MAP TEAM :

Programmation & Développement : Alexandra Zaïnal
Sur une idée originale de : Baudouin d'Aumeries
Assistance à la programmation : Marc-Olivier Méhu
Soutien technique & logistique : Manuel Goepfert

Contact : metmap@orbifly.com




SOURCES & CREDITS :

   NOAA